Standish, Michigan
Current Conditions -  °F | °C
As of 1:33 AM on Wednesday 28 Jan 2015 (Local Time) from KIKW Reporting Station
Clear Clear  
Wind Chill:   Ceiling: Unl
Heat Index:   Visibility: 10mi
Dew Point:   Wind: 0mph
Humidity: 85%   Direction: NA
Pressure: 30.25"   Gusts: NA
Location:  43.98°N, 83.96°W
Report Text: KIKW 280633Z AUTO 00000KT 10SM CLR M14/M16 A3025 RMK AO2 T11441164
Loading
Personal Weather Stations






























Interactive Weather Map New forecast layout! Learn more

10-Day Weather Forecast

Advertisements
Track Severe Weather on mobile